createdAt,value
2022-12-02T00:01:44.977Z,100397.63
2022-12-02T00:06:50.049Z,100393.00
2022-12-02T00:11:53.619Z,100386.38
2022-12-02T00:16:57.526Z,100389.91
2022-12-02T00:22:02.186Z,100377.75
2022-12-02T00:27:05.525Z,100376.78
2022-12-02T00:32:08.951Z,100380.09
2022-12-02T00:37:13.670Z,100367.00
2022-12-02T00:42:16.914Z,100356.75
2022-12-02T00:47:20.129Z,100355.91
2022-12-02T00:52:24.763Z,100352.31
2022-12-02T00:57:28.009Z,100352.59
2022-12-02T01:02:31.323Z,100348.28
2022-12-02T01:07:36.099Z,100344.50
2022-12-02T01:12:39.376Z,100344.44
2022-12-02T01:17:42.655Z,100338.41
2022-12-02T01:22:47.500Z,100342.84
2022-12-02T01:27:50.822Z,100340.25
2022-12-02T01:32:54.206Z,100343.84
2022-12-02T01:37:58.926Z,100340.41
2022-12-02T01:43:02.282Z,100327.28
2022-12-02T01:48:06.418Z,100324.75
2022-12-02T01:53:11.413Z,100331.53
2022-12-02T01:58:15.326Z,100322.81
2022-12-02T02:03:18.608Z,100326.56
2022-12-02T02:08:24.147Z,100329.19
2022-12-02T02:13:27.409Z,100318.75
2022-12-02T02:18:30.880Z,100325.00
2022-12-02T02:23:35.750Z,100327.81
2022-12-02T02:28:39.154Z,100329.63
2022-12-02T02:33:42.650Z,100324.31
2022-12-02T02:38:49.420Z,100330.50
2022-12-02T02:43:52.844Z,100335.00
2022-12-02T02:48:56.021Z,100325.44
2022-12-02T02:54:00.583Z,100322.97
2022-12-02T02:59:03.718Z,100316.78
2022-12-02T03:04:11.838Z,100302.28
2022-12-02T03:09:19.850Z,100304.94
2022-12-02T03:14:24.131Z,100302.38
2022-12-02T03:19:28.320Z,100305.91
2022-12-02T03:24:34.610Z,100293.78
2022-12-02T03:29:38.815Z,100294.50
2022-12-02T03:34:43.598Z,100294.72
2022-12-02T03:39:48.198Z,100279.03
2022-12-02T03:44:52.221Z,100291.44
2022-12-02T03:49:55.681Z,100282.06
2022-12-02T03:55:00.711Z,100272.50
2022-12-02T04:00:05.442Z,100276.09
2022-12-02T04:05:09.269Z,100266.41
2022-12-02T04:10:14.035Z,100264.78
2022-12-02T04:15:17.228Z,100264.72
2022-12-02T04:20:20.569Z,100282.41
2022-12-02T04:25:25.121Z,100268.63
2022-12-02T04:30:28.273Z,100276.69
2022-12-02T04:35:31.417Z,100271.44
2022-12-02T04:40:35.972Z,100275.16
2022-12-02T04:45:39.314Z,100272.63
2022-12-02T04:50:42.447Z,100272.63
2022-12-02T04:55:47.821Z,100261.38
2022-12-02T05:00:51.007Z,100264.94
2022-12-02T05:05:54.300Z,100267.63
2022-12-02T05:10:58.906Z,100255.59
2022-12-02T05:16:02.218Z,100251.19
2022-12-02T05:21:05.928Z,100242.50
2022-12-02T05:26:11.035Z,100253.84
2022-12-02T05:31:14.535Z,100244.22
2022-12-02T05:36:17.853Z,100246.91
2022-12-02T05:41:22.578Z,100233.91
2022-12-02T05:46:25.918Z,100252.44
2022-12-02T05:51:29.161Z,100234.19
2022-12-02T05:56:33.833Z,100249.16
2022-12-02T06:01:40.071Z,100226.50
2022-12-02T06:06:43.775Z,100234.41
2022-12-02T06:11:49.356Z,100244.06
2022-12-02T06:16:56.938Z,100236.22
2022-12-02T06:22:02.903Z,100238.06
2022-12-02T06:27:07.475Z,100239.69
2022-12-02T06:32:19.840Z,100232.69
2022-12-02T06:37:24.738Z,100244.22
2022-12-02T06:42:32.764Z,100243.59
2022-12-02T06:48:00.926Z,100238.41
2022-12-02T06:53:32.390Z,100238.44
2022-12-02T06:58:41.590Z,100236.75
2022-12-02T07:03:48.681Z,100234.19
2022-12-02T07:08:52.117Z,100231.56
2022-12-02T07:13:56.674Z,100237.88
2022-12-02T07:19:01.142Z,100242.31
2022-12-02T07:24:04.413Z,100246.69
2022-12-02T07:29:16.172Z,100260.53
2022-12-02T07:34:19.495Z,100260.50
2022-12-02T07:39:22.985Z,100251.97
2022-12-02T07:44:27.537Z,100253.56
2022-12-02T07:49:30.705Z,100256.22
2022-12-02T07:54:34.473Z,100262.31
2022-12-02T07:59:38.990Z,100263.38
2022-12-02T08:04:42.680Z,100255.34
2022-12-02T08:09:45.879Z,100259.69
2022-12-02T08:14:50.552Z,100262.44
2022-12-02T08:19:53.949Z,100268.59
2022-12-02T08:24:57.166Z,100263.22
2022-12-02T08:30:01.700Z,100267.69
2022-12-02T08:35:05.152Z,100270.97
2022-12-02T08:40:09.460Z,100263.41
2022-12-02T08:45:14.096Z,100273.59
2022-12-02T08:50:17.634Z,100272.59
2022-12-02T08:55:20.814Z,100261.63
2022-12-02T09:00:25.659Z,100256.09
2022-12-02T09:05:28.818Z,100263.66
2022-12-02T09:10:32.449Z,100272.06
2022-12-02T09:15:37.111Z,100272.06
2022-12-02T09:20:40.277Z,100282.22
2022-12-02T09:25:43.432Z,100274.22
2022-12-02T09:30:48.008Z,100281.88
2022-12-02T09:35:51.494Z,100279.91
2022-12-02T09:40:54.740Z,100277.34
2022-12-02T09:46:00.171Z,100280.72
2022-12-02T09:51:03.582Z,100283.06
2022-12-02T09:56:11.817Z,100274.41
2022-12-02T10:01:17.289Z,100279.28
2022-12-02T10:06:25.809Z,100271.22
2022-12-02T10:11:32.785Z,100271.34
2022-12-02T10:16:38.992Z,100276.28
2022-12-02T10:21:42.545Z,100272.72
2022-12-02T10:26:50.501Z,100263.66
2022-12-02T10:32:01.172Z,100258.97
2022-12-02T10:37:18.737Z,100269.91
2022-12-02T10:42:22.370Z,100257.94
2022-12-02T10:47:27.242Z,100250.38
2022-12-02T10:52:35.427Z,100246.06
2022-12-02T10:57:38.883Z,100244.31
2022-12-02T11:02:46.807Z,100238.03
2022-12-02T11:07:58.774Z,100240.94
2022-12-02T11:13:06.064Z,100227.22
2022-12-02T11:18:12.282Z,100241.84
2022-12-02T11:23:21.743Z,100227.09
2022-12-02T11:28:46.365Z,100223.38
2022-12-02T11:34:06.756Z,100197.84
2022-12-02T11:39:12.406Z,100197.38
2022-12-02T11:44:26.738Z,100191.16
2022-12-02T11:49:34.633Z,100184.06
2022-12-02T11:54:39.844Z,100168.44
2022-12-02T11:59:42.828Z,100168.38
2022-12-02T12:04:48.060Z,100156.47
2022-12-02T12:09:58.078Z,100146.75
2022-12-02T12:15:03.730Z,100134.69
2022-12-02T12:20:40.181Z,100114.09
2022-12-02T12:25:45.813Z,100110.47
2022-12-02T12:30:49.097Z,100107.97
2022-12-02T12:35:54.423Z,100092.41
2022-12-02T12:40:59.376Z,100077.06
2022-12-02T12:46:02.738Z,100064.56
2022-12-02T12:51:06.238Z,100058.19
2022-12-02T12:56:10.906Z,100044.84
2022-12-02T13:01:14.390Z,100034.59
2022-12-02T13:06:17.649Z,100027.91
2022-12-02T13:11:22.285Z,100023.38
2022-12-02T13:16:25.491Z,100014.94
2022-12-02T13:21:28.787Z,100006.03
2022-12-02T13:26:33.462Z,99990.31
2022-12-02T13:31:36.883Z,99974.78
2022-12-02T13:36:40.176Z,99978.88
2022-12-02T13:41:44.860Z,99963.56
2022-12-02T13:46:48.067Z,99968.59
2022-12-02T13:51:51.414Z,99969.13
2022-12-02T13:56:56.176Z,99964.63
2022-12-02T14:01:59.413Z,99960.53
2022-12-02T14:07:02.660Z,99945.72
2022-12-02T14:12:07.855Z,99945.31
2022-12-02T14:17:11.079Z,99939.59
2022-12-02T14:22:14.338Z,99945.72
2022-12-02T14:27:18.976Z,99934.94
2022-12-02T14:32:22.103Z,99925.16
2022-12-02T14:37:25.283Z,99925.88
2022-12-02T14:42:29.809Z,99925.94
2022-12-02T14:47:32.961Z,99917.72
2022-12-02T14:52:36.098Z,99908.00
2022-12-02T14:57:40.649Z,99906.03
2022-12-02T15:02:43.877Z,99906.31
2022-12-02T15:07:47.517Z,99907.16
2022-12-02T15:12:53.113Z,99903.00
2022-12-02T15:17:56.301Z,99904.03
2022-12-02T15:22:59.460Z,99909.28
2022-12-02T15:28:04.058Z,99905.47
2022-12-02T15:33:07.201Z,99906.78
2022-12-02T15:38:10.342Z,99898.38
2022-12-02T15:43:14.913Z,99898.91
2022-12-02T15:48:18.051Z,99901.44
2022-12-02T15:53:21.168Z,99903.97
2022-12-02T15:58:25.748Z,99909.50
2022-12-02T16:03:28.871Z,99916.53
2022-12-02T16:08:33.455Z,99903.94
2022-12-02T16:13:38.207Z,99911.22
2022-12-02T16:18:41.326Z,99913.16
2022-12-02T16:23:44.527Z,99909.19
2022-12-02T16:28:49.042Z,99904.59
2022-12-02T16:33:52.175Z,99901.69
2022-12-02T16:38:55.352Z,99905.88
2022-12-02T16:43:59.890Z,99905.44
2022-12-02T16:49:03.035Z,99906.56
2022-12-02T16:54:06.395Z,99904.28
2022-12-02T16:59:10.899Z,99903.69
2022-12-02T17:04:14.034Z,99894.31
2022-12-02T17:09:17.430Z,99902.56
2022-12-02T17:14:21.979Z,99897.56
2022-12-02T17:19:25.133Z,99900.56
2022-12-02T17:24:28.302Z,99899.16
2022-12-02T17:29:32.874Z,99903.94
2022-12-02T17:34:36.022Z,99907.78
2022-12-02T17:39:39.172Z,99918.50
2022-12-02T17:44:43.746Z,99908.22
2022-12-02T17:49:46.870Z,99912.09
2022-12-02T17:54:50.534Z,99907.81
2022-12-02T17:59:55.419Z,99917.81
2022-12-02T18:05:00.619Z,99918.38
2022-12-02T18:10:03.786Z,99920.44
2022-12-02T18:15:09.413Z,99918.91
2022-12-02T18:20:13.341Z,99922.59
2022-12-02T18:25:16.662Z,99921.94
2022-12-02T18:30:21.476Z,99919.69
2022-12-02T18:35:26.188Z,99913.66
2022-12-02T18:40:29.394Z,99917.38
2022-12-02T18:45:33.946Z,99911.53
2022-12-02T18:50:37.141Z,99900.28
2022-12-02T18:55:42.173Z,99899.50
2022-12-02T19:00:46.747Z,99898.09
2022-12-02T19:05:49.866Z,99903.47
2022-12-02T19:10:53.876Z,99914.13
2022-12-02T19:15:58.697Z,99917.78
2022-12-02T19:21:02.578Z,99916.97
2022-12-02T19:26:05.858Z,99910.94
2022-12-02T19:31:10.418Z,99902.31
2022-12-02T19:36:13.660Z,99908.56
2022-12-02T19:41:16.828Z,99910.50
2022-12-02T19:46:21.571Z,99908.75
2022-12-02T19:51:24.711Z,99915.84
2022-12-02T19:56:27.987Z,99907.22
2022-12-02T20:01:38.568Z,99904.66
2022-12-02T20:06:42.324Z,99901.22
2022-12-02T20:11:45.757Z,99904.19
2022-12-02T20:16:50.645Z,99903.19
2022-12-02T20:21:53.805Z,99900.81
2022-12-02T20:26:57.160Z,99892.81
2022-12-02T20:32:01.725Z,99893.00
2022-12-02T20:37:04.898Z,99887.13
2022-12-02T20:42:08.017Z,99888.84
2022-12-02T20:47:12.575Z,99888.13
2022-12-02T20:52:16.557Z,99892.38
2022-12-02T20:57:19.703Z,99892.50
2022-12-02T21:02:24.347Z,99896.94
2022-12-02T21:07:27.529Z,99892.69
2022-12-02T21:12:31.022Z,99899.69
2022-12-02T21:17:35.930Z,99896.03
2022-12-02T21:22:39.046Z,99892.38
2022-12-02T21:27:42.259Z,99894.03
2022-12-02T21:32:46.805Z,99901.03
2022-12-02T21:37:49.942Z,99901.91
2022-12-02T21:42:53.145Z,99892.28
2022-12-02T21:47:57.667Z,99903.00
2022-12-02T21:53:00.810Z,99901.50
2022-12-02T21:58:04.548Z,99894.44
2022-12-02T22:03:13.367Z,99886.63
2022-12-02T22:08:18.000Z,99887.78
2022-12-02T22:13:21.236Z,99873.94
2022-12-02T22:18:25.817Z,99877.50
2022-12-02T22:23:28.971Z,99890.69
2022-12-02T22:28:32.114Z,99877.56
2022-12-02T22:33:36.654Z,99885.44
2022-12-02T22:38:39.767Z,99893.22
2022-12-02T22:43:42.935Z,99889.16
2022-12-02T22:48:47.465Z,99888.19
2022-12-02T22:53:50.729Z,99884.94
2022-12-02T22:58:54.252Z,99878.97
2022-12-02T23:03:59.050Z,99887.63
2022-12-02T23:09:02.193Z,99885.06
2022-12-02T23:14:05.357Z,99874.59
2022-12-02T23:19:09.917Z,99877.34
2022-12-02T23:24:13.092Z,99878.41
2022-12-02T23:29:16.246Z,99882.78
2022-12-02T23:34:20.940Z,99875.03
2022-12-02T23:39:24.208Z,99881.34
2022-12-02T23:44:27.376Z,99884.94
2022-12-02T23:49:31.941Z,99878.88
2022-12-02T23:54:35.085Z,99886.88
2022-12-02T23:59:38.260Z,99871.19
